Victorious Ace — 3FTR4 — position and weather

sailwx.info

Track history (hours):
 
Tides and Currents Weather Stations Pressure Air Temp Water Temp Dewpoint Dewpoint Depression Visibility Wind Speed Wind Dir Waves Ship Positions

Victorious Ace

Last reported at 2017-Oct-29 10:51 UTC. Time now 2017-Nov-20 02:18 UTC.
Position N 34°57' E 140°14'.
Warning: this ship's position is 21 days out of date.

Length 200 m; draft 9.4 m.

Type: Ship. MMSI: 356541000.

Date/timePositionNaut miles runAvg speedWind from/ knotsBaromVisibWave heightAir tempDewpointWater temp
2017-Oct-29 10:51N 34°57' E 140°14'616.3
2017-Oct-29 10:30N 34°55' E 140°07'1215.7
2017-Oct-29 09:43N 34°51' E 139°53'315.0
2017-Oct-29 09:30N 34°50' E 139°49'815.2
2017-Oct-29 09:00N 34°54' E 139°41'917.7
2017-Oct-29 08:30N 35°03' E 139°42'815.5
2017-Oct-29 08:00N 35°11' E 139°45'5 9.4
2017-Oct-29 07:30N 35°15' E 139°46'611.7
2017-Oct-29 07:00N 35°20' E 139°42'510.1
2017-Oct-29 06:30N 35°25' E 139°41'1 1.2
2017-Oct-29 05:58N 35°25' E 139°41'0 0.0
2017-Oct-29 05:28N 35°25' E 139°41'0 0.0
2017-Oct-29 04:55N 35°25' E 139°41'0 0.0
2017-Oct-29 04:28N 35°25' E 139°41'0 0.0
2017-Oct-29 03:58N 35°25' E 139°41'1 0.2
2017-Oct-28 18:59N 35°25' E 139°42'0 0.0
2017-Oct-28 18:29N 35°25' E 139°42'0 0.1
2017-Oct-28 17:59N 35°25' E 139°42'0 0.1
2017-Oct-28 17:26N 35°25' E 139°42'0 0.0
2017-Oct-28 16:59N 35°25' E 139°42'0 0.0
2017-Oct-28 16:29N 35°25' E 139°42'0 0.0
2017-Oct-28 15:59N 35°25' E 139°42'1 1.9
2017-Oct-28 15:30N 35°26' E 139°43'2 3.3
2017-Oct-28 15:00N 35°27' E 139°41'0 0.0
2017-Oct-28 14:30N 35°27' E 139°41'0 0.0
2017-Oct-28 14:00N 35°27' E 139°41'0 0.0
2017-Oct-28 13:30N 35°27' E 139°41'0 0.0
2017-Oct-28 13:00N 35°27' E 139°41'0 0.0
2017-Oct-28 12:30N 35°27' E 139°41'0 0.0
2017-Oct-28 12:00N 35°27' E 139°41'0 0.0
2017-Oct-28 11:30N 35°27' E 139°41'0 0.0
2017-Oct-28 11:00N 35°27' E 139°41'0 0.0
2017-Oct-28 10:30N 35°27' E 139°41'0 0.0
2017-Oct-28 10:00N 35°27' E 139°41'0 0.0
2017-Oct-28 09:30N 35°27' E 139°41'0 0.0
2017-Oct-28 09:00N 35°27' E 139°41'0 0.0
2017-Oct-28 08:30N 35°27' E 139°41'0 0.0
2017-Oct-28 08:00N 35°27' E 139°41'0 0.0
2017-Oct-28 07:30N 35°27' E 139°41'0 0.0
2017-Oct-28 07:00N 35°27' E 139°41'0 0.0
2017-Oct-28 06:30N 35°27' E 139°41'0 0.0
2017-Oct-28 06:00N 35°27' E 139°41'0 0.0
2017-Oct-28 05:30N 35°27' E 139°41'0 0.0
2017-Oct-28 05:00N 35°27' E 139°41'0 0.0
2017-Oct-28 04:30N 35°27' E 139°41'0 0.2
2017-Oct-28 04:00N 35°27' E 139°41'1 2.4
2017-Oct-28 03:30N 35°26' E 139°42'4 8.6
2017-Oct-28 03:00N 35°22' E 139°43'510.3
2017-Oct-28 02:30N 35°17' E 139°45'611.6
2017-Oct-28 02:00N 35°12' E 139°47'5 9.5
2017-Oct-28 01:30N 35°07' E 139°46'5 9.8
2017-Oct-28 01:00N 35°02' E 139°44'3 6.0
2017-Oct-28 00:30N 34°60' E 139°42'611.4
2017-Oct-28 00:00N 34°54' E 139°40'916.8
2017-Oct-27 23:27N 34°46' E 139°35'  
2017-Oct-21 13:30N 35°04' E 140°29'1718.5
2017-Oct-21 12:35N 34°56' E 140°11'219.1
2017-Oct-21 12:28N 34°55' E 140°08'1318.6
2017-Oct-21 11:45N 34°50' E 139°53'518.6
2017-Oct-21 11:30N 34°51' E 139°48'1019.6
2017-Oct-21 11:00N 34°58' E 139°39'917.8
2017-Oct-21 10:30N 35°06' E 139°43'612.3
2017-Oct-21 10:00N 35°12' E 139°46'510.6
2017-Oct-21 09:31N 35°17' E 139°45'612.0
2017-Oct-21 09:00N 35°23' E 139°42'3 5.8
2017-Oct-21 08:30N 35°25' E 139°41'0 0.4
2017-Oct-21 07:58N 35°25' E 139°41'0 0.0
2017-Oct-21 07:28N 35°25' E 139°41'0 0.0
2017-Oct-21 06:58N 35°25' E 139°41'0 0.0
2017-Oct-21 06:28N 35°25' E 139°41'0 0.0
2017-Oct-21 05:58N 35°25' E 139°41'0 0.0
2017-Oct-21 05:28N 35°25' E 139°41'0 0.0
2017-Oct-21 04:58N 35°25' E 139°41'0 0.0
2017-Oct-21 04:28N 35°25' E 139°41'0 0.0
2017-Oct-21 03:58N 35°25' E 139°41'0 0.0
2017-Oct-21 03:28N 35°25' E 139°41'0 0.0
2017-Oct-21 02:58N 35°25' E 139°41'0 0.0
2017-Oct-21 02:28N 35°25' E 139°41'0 0.0
2017-Oct-21 01:58N 35°25' E 139°41'0 0.0
2017-Oct-21 01:28N 35°25' E 139°41'0 0.0
2017-Oct-21 00:58N 35°25' E 139°41'0 0.0
2017-Oct-21 00:28N 35°25' E 139°41'0 0.0
2017-Oct-20 23:58N 35°25' E 139°41'0 0.0
2017-Oct-20 23:28N 35°25' E 139°41'0 0.0
2017-Oct-20 22:58N 35°25' E 139°41'0 0.0
2017-Oct-20 22:28N 35°25' E 139°41'1 1.7
2017-Oct-20 22:01N 35°25' E 139°41'4 7.4
2017-Oct-20 21:30N 35°21' E 139°43'611.5
2017-Oct-20 21:01N 35°16' E 139°46'611.0
2017-Oct-20 20:30N 35°11' E 139°47'4 7.9
2017-Oct-20 20:00N 35°07' E 139°46'4 7.2
2017-Oct-20 19:30N 35°03' E 139°45'4 7.1
2017-Oct-20 18:59N 35°00' E 139°43'4 8.5
2017-Oct-20 18:30N 34°56' E 139°42'4 8.9
2017-Oct-20 18:00N 34°52' E 139°41'4 8.8
2017-Oct-20 17:30N 34°48' E 139°44'5 8.8
2017-Oct-20 16:57N 34°43' E 139°46'8 4.6
2017-Oct-20 15:10N 34°42' E 139°36'1 1.5
2017-Oct-20 14:33N 34°41' E 139°37'0 1.1
2017-Oct-20 14:30N 34°41' E 139°37'3 1.6
2017-Oct-20 12:52N 34°40' E 139°40'1 2.3
2017-Oct-20 12:30N 34°40' E 139°41'2 3.4
2017-Oct-20 11:48N 34°41' E 139°43'1 3.9
2017-Oct-20 11:28N 34°42' E 139°45'2 3.5
2017-Oct-20 10:56N 34°43' E 139°46'2 3.7
2017-Oct-20 10:30N 34°44' E 139°48'2 3.5
2017-Oct-20 10:00N 34°45' E 139°49'1 3.0
2017-Oct-20 09:30N 34°46' E 139°51'1 2.8
2017-Oct-20 09:00N 34°46' E 139°53'6 2.8
2017-Oct-20 07:02N 34°47' E 139°59'0 3.8
2017-Oct-20 06:59N 34°47' E 139°59'2 3.4
2017-Oct-20 06:17N 34°47' E 140°02'1 3.5
2017-Oct-20 06:00N 34°47' E 140°03'5 1.2
2017-Oct-20 02:11N 34°47' E 140°09'2 7.1
2017-Oct-20 01:54N 34°47' E 140°06'2 3.6
2017-Oct-20 01:25N 34°48' E 140°04'5 1.9
2017-Oct-19 22:39N 34°49' E 140°11'4 8.9
2017-Oct-19 22:14N 34°48' E 140°06'2 8.6
2017-Oct-19 21:57N 34°47' E 140°03'19 8.5
2017-Oct-19 19:46N 34°42' E 139°42'1 4.1
2017-Oct-19 19:27N 34°44' E 139°42'2 4.9
2017-Oct-19 18:58N 34°45' E 139°45'2 3.6
2017-Oct-19 18:30N 34°46' E 139°46'2 3.2
2017-Oct-19 17:57N 34°47' E 139°48'1 3.3
2017-Oct-19 17:30N 34°47' E 139°50'2 3.2
2017-Oct-19 17:00N 34°48' E 139°52'2 3.0
2017-Oct-19 16:30N 34°48' E 139°53'2 2.7
2017-Oct-19 15:51N 34°48' E 139°56'1 3.1
2017-Oct-19 15:23N 34°48' E 139°57'1 3.2
2017-Oct-19 14:59N 34°48' E 139°59'2 3.6
2017-Oct-19 14:30N 34°48' E 140°01'2 4.3
2017-Oct-19 13:59N 34°48' E 140°04'2 3.8
2017-Oct-19 13:28N 34°48' E 140°06'2 3.3
2017-Oct-19 13:00N 34°48' E 140°04'4 6.7
2017-Oct-19 12:24N 34°48' E 139°59'3 6.4
2017-Oct-19 11:57N 34°48' E 139°56'3 7.0
2017-Oct-19 11:27N 34°48' E 139°52'3 6.7
2017-Oct-19 11:00N 34°47' E 139°48'  
Track history (hours):
 
Tides and Currents Weather Stations Pressure Air Temp Water Temp Dewpoint Dewpoint Depression Visibility Wind Speed Wind Dir Waves Ship Positions

Victorious Ace

Last reported at 2017-Oct-29 10:51 UTC. Time now 2017-Nov-20 02:18 UTC.
Position N 34°57' E 140°14'.
Warning: this ship's position is 21 days out of date.

Length 200 m; draft 9.4 m.

Type: Ship. MMSI: 356541000.

Date/timePositionNaut miles runAvg speedWind from/ knotsBaromVisibWave heightAir tempDewpointWater temp
2017-Oct-29 10:51N 34°57' E 140°14'616.3
2017-Oct-29 10:30N 34°55' E 140°07'1215.7
2017-Oct-29 09:43N 34°51' E 139°53'315.0
2017-Oct-29 09:30N 34°50' E 139°49'815.2
2017-Oct-29 09:00N 34°54' E 139°41'917.7
2017-Oct-29 08:30N 35°03' E 139°42'815.5
2017-Oct-29 08:00N 35°11' E 139°45'5 9.4
2017-Oct-29 07:30N 35°15' E 139°46'611.7
2017-Oct-29 07:00N 35°20' E 139°42'510.1
2017-Oct-29 06:30N 35°25' E 139°41'1 1.2
2017-Oct-29 05:58N 35°25' E 139°41'0 0.0
2017-Oct-29 05:28N 35°25' E 139°41'0 0.0
2017-Oct-29 04:55N 35°25' E 139°41'0 0.0
2017-Oct-29 04:28N 35°25' E 139°41'0 0.0
2017-Oct-29 03:58N 35°25' E 139°41'1 0.2
2017-Oct-28 18:59N 35°25' E 139°42'0 0.0
2017-Oct-28 18:29N 35°25' E 139°42'0 0.1
2017-Oct-28 17:59N 35°25' E 139°42'0 0.1
2017-Oct-28 17:26N 35°25' E 139°42'0 0.0
2017-Oct-28 16:59N 35°25' E 139°42'0 0.0
2017-Oct-28 16:29N 35°25' E 139°42'0 0.0
2017-Oct-28 15:59N 35°25' E 139°42'1 1.9
2017-Oct-28 15:30N 35°26' E 139°43'2 3.3
2017-Oct-28 15:00N 35°27' E 139°41'0 0.0
2017-Oct-28 14:30N 35°27' E 139°41'0 0.0
2017-Oct-28 14:00N 35°27' E 139°41'0 0.0
2017-Oct-28 13:30N 35°27' E 139°41'0 0.0
2017-Oct-28 13:00N 35°27' E 139°41'0 0.0
2017-Oct-28 12:30N 35°27' E 139°41'0 0.0
2017-Oct-28 12:00N 35°27' E 139°41'0 0.0
2017-Oct-28 11:30N 35°27' E 139°41'0 0.0
2017-Oct-28 11:00N 35°27' E 139°41'0 0.0
2017-Oct-28 10:30N 35°27' E 139°41'0 0.0
2017-Oct-28 10:00N 35°27' E 139°41'0 0.0
2017-Oct-28 09:30N 35°27' E 139°41'0 0.0
2017-Oct-28 09:00N 35°27' E 139°41'0 0.0
2017-Oct-28 08:30N 35°27' E 139°41'0 0.0
2017-Oct-28 08:00N 35°27' E 139°41'0 0.0
2017-Oct-28 07:30N 35°27' E 139°41'0 0.0
2017-Oct-28 07:00N 35°27' E 139°41'0 0.0
2017-Oct-28 06:30N 35°27' E 139°41'0 0.0
2017-Oct-28 06:00N 35°27' E 139°41'0 0.0
2017-Oct-28 05:30N 35°27' E 139°41'0 0.0
2017-Oct-28 05:00N 35°27' E 139°41'0 0.0
2017-Oct-28 04:30N 35°27' E 139°41'0 0.2
2017-Oct-28 04:00N 35°27' E 139°41'1 2.4
2017-Oct-28 03:30N 35°26' E 139°42'4 8.6
2017-Oct-28 03:00N 35°22' E 139°43'510.3
2017-Oct-28 02:30N 35°17' E 139°45'611.6
2017-Oct-28 02:00N 35°12' E 139°47'5 9.5
2017-Oct-28 01:30N 35°07' E 139°46'5 9.8
2017-Oct-28 01:00N 35°02' E 139°44'3 6.0
2017-Oct-28 00:30N 34°60' E 139°42'611.4
2017-Oct-28 00:00N 34°54' E 139°40'916.8
2017-Oct-27 23:27N 34°46' E 139°35'  
2017-Oct-21 13:30N 35°04' E 140°29'1718.5
2017-Oct-21 12:35N 34°56' E 140°11'219.1
2017-Oct-21 12:28N 34°55' E 140°08'1318.6
2017-Oct-21 11:45N 34°50' E 139°53'518.6
2017-Oct-21 11:30N 34°51' E 139°48'1019.6
2017-Oct-21 11:00N 34°58' E 139°39'917.8
2017-Oct-21 10:30N 35°06' E 139°43'612.3
2017-Oct-21 10:00N 35°12' E 139°46'510.6
2017-Oct-21 09:31N 35°17' E 139°45'612.0
2017-Oct-21 09:00N 35°23' E 139°42'3 5.8
2017-Oct-21 08:30N 35°25' E 139°41'0 0.4
2017-Oct-21 07:58N 35°25' E 139°41'0 0.0
2017-Oct-21 07:28N 35°25' E 139°41'0 0.0
2017-Oct-21 06:58N 35°25' E 139°41'0 0.0
2017-Oct-21 06:28N 35°25' E 139°41'0 0.0
2017-Oct-21 05:58N 35°25' E 139°41'0 0.0
2017-Oct-21 05:28N 35°25' E 139°41'0 0.0
2017-Oct-21 04:58N 35°25' E 139°41'0 0.0
2017-Oct-21 04:28N 35°25' E 139°41'0 0.0
2017-Oct-21 03:58N 35°25' E 139°41'0 0.0
2017-Oct-21 03:28N 35°25' E 139°41'0 0.0
2017-Oct-21 02:58N 35°25' E 139°41'0 0.0
2017-Oct-21 02:28N 35°25' E 139°41'0 0.0
2017-Oct-21 01:58N 35°25' E 139°41'0 0.0
2017-Oct-21 01:28N 35°25' E 139°41'0 0.0
2017-Oct-21 00:58N 35°25' E 139°41'0 0.0
2017-Oct-21 00:28N 35°25' E 139°41'0 0.0
2017-Oct-20 23:58N 35°25' E 139°41'0 0.0
2017-Oct-20 23:28N 35°25' E 139°41'0 0.0
2017-Oct-20 22:58N 35°25' E 139°41'0 0.0
2017-Oct-20 22:28N 35°25' E 139°41'1 1.7
2017-Oct-20 22:01N 35°25' E 139°41'4 7.4
2017-Oct-20 21:30N 35°21' E 139°43'611.5
2017-Oct-20 21:01N 35°16' E 139°46'611.0
2017-Oct-20 20:30N 35°11' E 139°47'4 7.9
2017-Oct-20 20:00N 35°07' E 139°46'4 7.2
2017-Oct-20 19:30N 35°03' E 139°45'4 7.1
2017-Oct-20 18:59N 35°00' E 139°43'4 8.5
2017-Oct-20 18:30N 34°56' E 139°42'4 8.9
2017-Oct-20 18:00N 34°52' E 139°41'4 8.8
2017-Oct-20 17:30N 34°48' E 139°44'5 8.8
2017-Oct-20 16:57N 34°43' E 139°46'8 4.6
2017-Oct-20 15:10N 34°42' E 139°36'1 1.5
2017-Oct-20 14:33N 34°41' E 139°37'0 1.1
2017-Oct-20 14:30N 34°41' E 139°37'3 1.6
2017-Oct-20 12:52N 34°40' E 139°40'1 2.3
2017-Oct-20 12:30N 34°40' E 139°41'2 3.4
2017-Oct-20 11:48N 34°41' E 139°43'1 3.9
2017-Oct-20 11:28N 34°42' E 139°45'2 3.5
2017-Oct-20 10:56N 34°43' E 139°46'2 3.7
2017-Oct-20 10:30N 34°44' E 139°48'2 3.5
2017-Oct-20 10:00N 34°45' E 139°49'1 3.0
2017-Oct-20 09:30N 34°46' E 139°51'1 2.8
2017-Oct-20 09:00N 34°46' E 139°53'6 2.8
2017-Oct-20 07:02N 34°47' E 139°59'0 3.8
2017-Oct-20 06:59N 34°47' E 139°59'2 3.4
2017-Oct-20 06:17N 34°47' E 140°02'1 3.5
2017-Oct-20 06:00N 34°47' E 140°03'5 1.2
2017-Oct-20 02:11N 34°47' E 140°09'2 7.1
2017-Oct-20 01:54N 34°47' E 140°06'2 3.6
2017-Oct-20 01:25N 34°48' E 140°04'5 1.9
2017-Oct-19 22:39N 34°49' E 140°11'4 8.9
2017-Oct-19 22:14N 34°48' E 140°06'2 8.6
2017-Oct-19 21:57N 34°47' E 140°03'19 8.5
2017-Oct-19 19:46N 34°42' E 139°42'1 4.1
2017-Oct-19 19:27N 34°44' E 139°42'2 4.9
2017-Oct-19 18:58N 34°45' E 139°45'2 3.6
2017-Oct-19 18:30N 34°46' E 139°46'2 3.2
2017-Oct-19 17:57N 34°47' E 139°48'1 3.3
2017-Oct-19 17:30N 34°47' E 139°50'2 3.2
2017-Oct-19 17:00N 34°48' E 139°52'2 3.0
2017-Oct-19 16:30N 34°48' E 139°53'2 2.7
2017-Oct-19 15:51N 34°48' E 139°56'1 3.1
2017-Oct-19 15:23N 34°48' E 139°57'1 3.2
2017-Oct-19 14:59N 34°48' E 139°59'2 3.6
2017-Oct-19 14:30N 34°48' E 140°01'2 4.3
2017-Oct-19 13:59N 34°48' E 140°04'2 3.8
2017-Oct-19 13:28N 34°48' E 140°06'2 3.3
2017-Oct-19 13:00N 34°48' E 140°04'4 6.7
2017-Oct-19 12:24N 34°48' E 139°59'3 6.4
2017-Oct-19 11:57N 34°48' E 139°56'3 7.0
2017-Oct-19 11:27N 34°48' E 139°52'3 6.7
2017-Oct-19 11:00N 34°47' E 139°48'  

Dump ship's entire track history